Time;durP1;ratioP1;P1;durP2;ratioP2;P2;SDS_P1;SDS_P2;PMS_P1;PMS_P2;Temp;Humidity;BMP_temperature;BMP_pressure;BME280_temperature;BME280_humidity;BME280_pressure;Samples;Min_cycle;Max_cycle;Signal;HPM_P1;HPM_P2
2024/03/30 00:00:04;;;;;;;7.03;5.27;;;10.50;99.90;;;;;;5026795;28;20172;-73
2024/03/30 00:02:29;;;;;;;6.07;5.57;;;10.50;99.90;;;;;;5014275;28;20180;-73
2024/03/30 00:04:56;;;;;;;5.63;5.23;;;10.60;99.90;;;;;;5013053;28;20183;-73
2024/03/30 00:07:21;;;;;;;6.50;5.80;;;10.60;99.90;;;;;;5019829;28;20644;-73
2024/03/30 00:09:48;;;;;;;6.37;5.87;;;10.60;99.90;;;;;;5032480;28;20254;-73
2024/03/30 00:12:13;;;;;;;6.27;5.77;;;10.70;99.90;;;;;;5025673;28;20172;-73
2024/03/30 00:14:39;;;;;;;6.00;5.50;;;10.70;99.90;;;;;;5013039;28;20196;-73
2024/03/30 00:17:05;;;;;;;6.20;5.73;;;10.70;99.90;;;;;;5018391;28;20195;-73
2024/03/30 00:19:30;;;;;;;6.00;5.60;;;10.70;99.90;;;;;;5026697;28;20668;-73
2024/03/30 00:21:58;;;;;;;6.47;5.47;;;10.70;99.90;;;;;;5013763;28;20177;-73
2024/03/30 00:24:24;;;;;;;5.87;5.17;;;10.70;99.90;;;;;;5012769;28;20196;-72
2024/03/30 00:26:49;;;;;;;6.47;5.90;;;10.80;99.90;;;;;;5012415;28;20245;-72
2024/03/30 00:29:15;;;;;;;6.30;5.80;;;10.80;99.90;;;;;;5012833;28;20196;-73
2024/03/30 00:31:40;;;;;;;6.10;5.50;;;10.80;99.90;;;;;;5012760;28;20607;-72
2024/03/30 00:34:07;;;;;;;6.33;5.57;;;10.80;99.90;;;;;;5012583;28;20196;-73
2024/03/30 00:36:33;;;;;;;5.70;5.20;;;10.70;99.90;;;;;;5013459;28;20651;-73
2024/03/30 00:39:00;;;;;;;6.40;5.90;;;10.70;99.90;;;;;;5012422;28;20265;-72
2024/03/30 00:41:26;;;;;;;6.70;6.10;;;10.60;99.90;;;;;;5028567;28;20167;-72
2024/03/30 00:43:51;;;;;;;6.33;5.83;;;10.60;99.90;;;;;;5028349;28;20258;-72
2024/03/30 00:46:17;;;;;;;6.30;5.80;;;10.60;99.90;;;;;;5012276;28;20180;-73
2024/03/30 00:48:42;;;;;;;6.90;6.27;;;10.50;99.90;;;;;;5012351;28;20211;-73
2024/03/30 00:51:08;;;;;;;6.23;5.73;;;10.50;99.90;;;;;;5024110;28;20168;-73
2024/03/30 00:53:35;;;;;;;8.90;6.17;;;10.40;99.90;;;;;;5032407;28;20282;-73
2024/03/30 00:56:01;;;;;;;6.70;6.10;;;10.40;99.90;;;;;;5029943;28;20241;-73
2024/03/30 00:58:28;;;;;;;7.27;6.60;;;10.30;99.90;;;;;;5032213;28;20211;-73
2024/03/30 01:00:53;;;;;;;7.23;6.67;;;10.20;99.90;;;;;;5017635;28;20176;-73
2024/03/30 01:03:19;;;;;;;7.90;7.30;;;10.20;99.90;;;;;;5012259;28;20730;-73
2024/03/30 01:05:45;;;;;;;10.77;7.63;;;10.10;99.90;;;;;;5012085;28;20184;-73
2024/03/30 01:08:10;;;;;;;9.67;8.00;;;10.00;99.90;;;;;;5011930;28;20673;-72
2024/03/30 01:10:36;;;;;;;9.37;8.57;;;10.00;99.90;;;;;;5025892;28;20225;-72
2024/03/30 01:13:02;;;;;;;8.73;8.03;;;10.00;99.90;;;;;;5031532;28;20618;-72
2024/03/30 01:15:28;;;;;;;9.67;8.80;;;10.00;99.90;;;;;;5022894;28;20164;-72
2024/03/30 01:17:54;;;;;;;13.00;9.77;;;9.90;99.90;;;;;;5011511;28;20184;-72
2024/03/30 01:20:20;;;;;;;13.90;10.93;;;9.80;99.90;;;;;;5013302;28;20199;-72
2024/03/30 01:22:46;;;;;;;16.20;13.23;;;9.80;99.90;;;;;;5013074;28;20176;-73
2024/03/30 01:25:12;;;;;;;18.90;14.63;;;9.70;99.90;;;;;;5020981;28;20178;-73
2024/03/30 01:27:39;;;;;;;20.30;16.00;;;9.70;99.90;;;;;;5027882;28;20172;-73
2024/03/30 01:30:07;;;;;;;19.27;16.27;;;9.70;99.90;;;;;;5011924;28;20490;-73
2024/03/30 01:32:36;;;;;;;22.83;17.47;;;9.70;99.90;;;;;;5011793;28;20176;-72
2024/03/30 01:35:03;;;;;;;22.63;18.47;;;9.60;99.90;;;;;;5013037;28;20212;-72
2024/03/30 01:37:29;;;;;;;28.97;19.17;;;9.60;99.90;;;;;;5011568;28;20712;-72
2024/03/30 01:39:57;;;;;;;23.27;19.07;;;9.60;99.90;;;;;;5011756;28;20183;-72
2024/03/30 01:42:27;;;;;;;27.07;19.97;;;9.70;99.90;;;;;;5011981;28;20274;-72
2024/03/30 01:44:53;;;;;;;30.67;19.90;;;9.70;99.90;;;;;;5023468;28;20268;-73
2024/03/30 01:47:19;;;;;;;26.10;20.83;;;9.60;99.90;;;;;;5015537;28;20180;-73
2024/03/30 01:49:45;;;;;;;28.37;21.20;;;9.70;99.90;;;;;;5011762;28;20221;-74
2024/03/30 01:52:10;;;;;;;27.63;21.90;;;9.70;99.90;;;;;;5012006;28;20176;-73
2024/03/30 01:54:36;;;;;;;29.40;22.93;;;9.70;99.90;;;;;;5013300;28;20204;-73
2024/03/30 01:57:02;;;;;;;30.17;22.37;;;9.70;99.90;;;;;;5026651;28;20215;-74
2024/03/30 01:59:28;;;;;;;29.40;22.37;;;9.70;99.90;;;;;;5028635;28;20176;-73
2024/03/30 02:01:55;;;;;;;28.43;22.70;;;9.70;99.90;;;;;;5011726;28;20198;-73
2024/03/30 02:04:24;;;;;;;29.77;21.87;;;9.70;99.90;;;;;;5011278;28;20199;-73
2024/03/30 02:06:50;;;;;;;29.47;21.27;;;9.70;99.90;;;;;;5010770;28;20188;-73
2024/03/30 02:09:17;;;;;;;28.60;21.90;;;9.70;99.90;;;;;;5011165;28;20717;-73
2024/03/30 02:11:43;;;;;;;26.03;20.37;;;9.70;99.90;;;;;;5011327;28;20184;-73
2024/03/30 02:14:09;;;;;;;22.40;18.93;;;9.70;99.90;;;;;;5015122;28;20203;-72
2024/03/30 02:16:35;;;;;;;26.03;19.70;;;9.70;99.90;;;;;;5021080;28;20202;-72
2024/03/30 02:19:04;;;;;;;25.10;19.20;;;9.70;99.90;;;;;;5017642;28;20188;-72
2024/03/30 02:21:30;;;;;;;23.43;17.77;;;9.70;99.90;;;;;;5023803;28;20557;-72
2024/03/30 02:23:56;;;;;;;22.50;17.83;;;9.70;99.90;;;;;;5024695;28;20207;-72
2024/03/30 02:26:22;;;;;;;22.40;18.23;;;9.70;99.90;;;;;;5011032;28;20586;-72
2024/03/30 02:28:51;;;;;;;21.13;17.37;;;9.70;99.90;;;;;;5011321;28;20208;-73
2024/03/30 02:31:17;;;;;;;26.37;18.53;;;9.70;99.90;;;;;;5032698;28;20692;-73
2024/03/30 02:33:43;;;;;;;25.43;19.00;;;9.70;99.90;;;;;;5034249;28;20207;-73
2024/03/30 02:36:09;;;;;;;22.77;17.80;;;9.70;99.90;;;;;;5032659;28;20190;-73
2024/03/30 02:38:35;;;;;;;28.53;18.70;;;9.70;99.90;;;;;;5033198;28;20187;-73
2024/03/30 02:41:01;;;;;;;28.83;20.27;;;9.70;99.90;;;;;;5027475;28;20179;-73
2024/03/30 02:43:26;;;;;;;31.50;20.97;;;9.70;99.90;;;;;;5023158;28;20769;-73
2024/03/30 02:45:52;;;;;;;32.27;22.93;;;9.70;99.90;;;;;;5033282;28;20179;-72
2024/03/30 02:48:18;;;;;;;30.97;22.87;;;9.70;99.90;;;;;;5024440;28;20625;-73
2024/03/30 02:50:43;;;;;;;32.90;23.43;;;9.60;99.90;;;;;;5028000;28;20211;-73
2024/03/30 02:53:09;;;;;;;33.80;23.53;;;9.70;99.90;;;;;;5018690;28;20566;-73
2024/03/30 02:55:34;;;;;;;36.90;24.03;;;9.70;99.90;;;;;;5015720;28;20246;-73
2024/03/30 02:58:01;;;;;;;32.50;23.53;;;9.70;99.90;;;;;;5014469;28;20179;-73
2024/03/30 03:00:26;;;;;;;32.20;22.10;;;9.60;99.90;;;;;;5014635;28;20203;-73
2024/03/30 03:02:52;;;;;;;31.63;21.90;;;9.60;99.90;;;;;;5014175;28;20681;-74
2024/03/30 03:05:18;;;;;;;28.60;21.03;;;9.60;99.90;;;;;;5014756;28;20179;-73
2024/03/30 03:07:44;;;;;;;29.33;21.63;;;9.60;99.90;;;;;;5033126;28;20191;-73
2024/03/30 03:10:09;;;;;;;31.90;21.17;;;9.60;99.90;;;;;;5032641;28;20241;-74
2024/03/30 03:12:35;;;;;;;26.37;20.57;;;9.60;99.90;;;;;;5032710;28;20190;-73
2024/03/30 03:15:04;;;;;;;26.90;20.63;;;9.60;99.90;;;;;;5034072;28;20597;-73
2024/03/30 03:17:30;;;;;;;31.63;20.17;;;9.50;99.90;;;;;;5033469;28;20191;-73
2024/03/30 03:19:55;;;;;;;26.30;18.83;;;9.50;99.90;;;;;;5014894;28;20657;-73
2024/03/30 03:22:21;;;;;;;23.23;18.40;;;9.50;99.90;;;;;;5025879;28;20194;-73
2024/03/30 03:24:47;;;;;;;23.53;19.03;;;9.50;99.90;;;;;;5033313;28;20741;-73
2024/03/30 03:27:12;;;;;;;25.53;17.60;;;9.50;99.90;;;;;;5033946;28;20210;-74
2024/03/30 03:29:38;;;;;;;23.13;18.10;;;9.50;99.90;;;;;;5034121;28;20482;-75
2024/03/30 03:32:04;;;;;;;26.23;18.67;;;9.40;99.90;;;;;;5017381;28;20188;-73
2024/03/30 03:34:29;;;;;;;23.23;17.87;;;9.40;99.90;;;;;;5032554;28;20195;-73
2024/03/30 03:36:55;;;;;;;24.73;16.83;;;9.40;99.90;;;;;;5033742;28;20286;-73
2024/03/30 03:39:22;;;;;;;22.30;16.73;;;9.40;99.90;;;;;;5034119;28;20179;-74
2024/03/30 03:41:48;;;;;;;23.37;17.23;;;9.40;99.90;;;;;;5033153;28;20172;-73
2024/03/30 03:44:13;;;;;;;24.20;17.70;;;9.40;99.90;;;;;;5033774;28;20203;-73
2024/03/30 03:46:40;;;;;;;21.00;16.80;;;9.40;99.90;;;;;;5032844;28;20202;-74
2024/03/30 03:49:05;;;;;;;22.57;16.77;;;9.40;99.90;;;;;;5032061;28;20217;-73
2024/03/30 03:51:31;;;;;;;24.60;17.43;;;9.40;99.90;;;;;;5032053;28;20171;-73
2024/03/30 03:53:56;;;;;;;24.20;18.07;;;9.40;99.90;;;;;;5031745;28;20728;-74
2024/03/30 03:56:22;;;;;;;28.17;18.03;;;9.40;99.90;;;;;;5032842;28;20227;-73
2024/03/30 03:58:47;;;;;;;28.53;18.03;;;9.40;99.90;;;;;;5033029;28;20187;-73
2024/03/30 04:01:14;;;;;;;27.63;18.97;;;9.50;99.90;;;;;;5033194;28;20183;-73
2024/03/30 04:03:41;;;;;;;28.57;18.63;;;9.50;99.90;;;;;;5033278;28;20540;-73
2024/03/30 04:06:11;;;;;;;25.47;18.77;;;9.50;99.90;;;;;;5032869;28;20235;-73
2024/03/30 04:08:37;;;;;;;28.00;19.43;;;9.50;99.90;;;;;;5033354;28;20227;-72
2024/03/30 04:11:04;;;;;;;34.33;20.03;;;9.50;99.90;;;;;;5032852;28;20669;-72
2024/03/30 04:13:29;;;;;;;29.80;20.13;;;9.50;99.90;;;;;;5033550;28;20191;-72
2024/03/30 04:15:59;;;;;;;29.60;19.33;;;9.50;99.90;;;;;;5032594;28;20521;-72
2024/03/30 04:18:25;;;;;;;28.37;19.07;;;9.50;99.90;;;;;;5029450;28;20168;-72
2024/03/30 04:21:01;;;;;;;29.30;18.83;;;9.50;99.90;;;;;;5015252;28;20191;-72
2024/03/30 04:23:29;;;;;;;27.17;18.53;;;9.40;99.90;;;;;;5031614;28;20206;-72
2024/03/30 04:26:04;;;;;;;25.87;17.47;;;9.40;99.90;;;;;;5032649;28;20226;-72
2024/03/30 04:28:31;;;;;;;29.37;19.20;;;9.40;99.90;;;;;;5032839;28;20218;-72
2024/03/30 04:30:58;;;;;;;25.23;18.30;;;9.40;99.90;;;;;;5032691;28;20194;-72
2024/03/30 04:33:24;;;;;;;27.23;18.60;;;9.40;99.90;;;;;;5033039;28;20206;-72
2024/03/30 04:35:55;;;;;;;29.27;18.43;;;9.40;99.90;;;;;;5029380;28;20504;-72
2024/03/30 04:38:21;;;;;;;31.47;18.57;;;9.40;99.90;;;;;;5032943;28;20179;-72
2024/03/30 04:41:04;;;;;;;28.43;19.73;;;9.40;99.90;;;;;;5032363;28;20774;-72
2024/03/30 04:43:32;;;;;;;25.17;18.43;;;9.50;99.90;;;;;;5032490;28;20214;-72
2024/03/30 04:45:58;;;;;;;25.00;17.73;;;9.50;99.90;;;;;;5032284;28;20179;-72
2024/03/30 04:48:25;;;;;;;27.47;19.03;;;9.50;99.90;;;;;;5030330;28;20290;-72
2024/03/30 04:50:51;;;;;;;24.27;18.17;;;9.50;99.90;;;;;;5030774;28;20234;-72
2024/03/30 04:53:21;;;;;;;24.83;17.90;;;9.50;99.90;;;;;;5032073;28;20200;-72
2024/03/30 04:55:50;;;;;;;22.77;16.50;;;9.50;99.90;;;;;;5031862;28;20175;-72
2024/03/30 04:58:18;;;;;;;24.60;17.57;;;9.50;99.90;;;;;;5032030;28;20252;-72
2024/03/30 05:00:43;;;;;;;25.20;16.30;;;9.40;99.90;;;;;;5032384;28;20183;-71
2024/03/30 05:03:09;;;;;;;24.00;17.77;;;9.40;99.90;;;;;;5031241;28;20298;-72
2024/03/30 05:05:34;;;;;;;24.83;17.40;;;9.40;99.90;;;;;;5031271;28;20171;-72
2024/03/30 05:08:00;;;;;;;23.37;17.50;;;9.40;99.90;;;;;;5012655;28;20661;-72
2024/03/30 05:10:25;;;;;;;25.23;18.27;;;9.40;99.90;;;;;;5012401;28;20172;-72
2024/03/30 05:12:51;;;;;;;22.93;16.90;;;9.40;99.90;;;;;;5012005;28;20195;-72
2024/03/30 05:15:17;;;;;;;24.83;17.57;;;9.40;99.90;;;;;;5012307;28;20172;-72
2024/03/30 05:17:42;;;;;;;23.63;17.10;;;9.40;99.90;;;;;;5011756;28;20202;-72
2024/03/30 05:22:52;;;;;;;26.13;16.93;;;9.40;99.90;;;;;;5029836;28;20302;-72
2024/03/30 05:25:17;;;;;;;28.40;18.20;;;9.40;99.90;;;;;;5031742;28;20199;-72
2024/03/30 05:27:43;;;;;;;23.47;16.60;;;9.40;99.90;;;;;;5030918;28;20191;-72
2024/03/30 05:30:09;;;;;;;24.13;17.43;;;9.40;99.90;;;;;;5028640;28;20176;-72
2024/03/30 05:32:35;;;;;;;25.03;17.60;;;9.40;99.90;;;;;;5011738;28;20646;-72
2024/03/30 05:35:00;;;;;;;22.17;16.37;;;9.40;99.90;;;;;;5012729;28;20268;-72
2024/03/30 05:37:26;;;;;;;21.73;17.00;;;9.40;99.90;;;;;;5011975;28;20206;-72
2024/03/30 05:39:52;;;;;;;24.90;17.60;;;9.40;99.90;;;;;;5010449;28;20176;-72
2024/03/30 05:42:17;;;;;;;22.93;16.50;;;9.40;99.90;;;;;;5012092;28;20183;-73
2024/03/30 05:44:50;;;;;;;29.63;18.33;;;9.40;99.90;;;;;;5014721;28;20206;-73
2024/03/30 05:47:16;;;;;;;28.53;17.67;;;9.50;99.90;;;;;;5030982;28;20180;-72
2024/03/30 05:49:42;;;;;;;21.23;16.50;;;9.50;99.90;;;;;;5024438;28;20358;-72
2024/03/30 05:52:07;;;;;;;23.17;17.80;;;9.50;99.90;;;;;;5012635;28;20505;-73
2024/03/30 05:54:33;;;;;;;24.43;17.27;;;9.50;99.90;;;;;;5011469;28;20199;-72
2024/03/30 05:56:58;;;;;;;27.53;17.93;;;9.60;99.90;;;;;;5021982;28;20526;-72
2024/03/30 05:59:24;;;;;;;23.80;17.97;;;9.60;99.90;;;;;;5030951;28;20258;-72
2024/03/30 06:01:49;;;;;;;28.23;18.43;;;9.70;99.90;;;;;;5030367;28;20337;-72
2024/03/30 06:04:15;;;;;;;22.77;18.37;;;9.70;99.90;;;;;;5031706;28;20270;-72
2024/03/30 06:06:41;;;;;;;24.80;18.80;;;9.80;99.90;;;;;;5037165;28;20187;-72
2024/03/30 06:09:06;;;;;;;28.50;18.53;;;9.80;99.90;;;;;;5037470;28;20293;-72
2024/03/30 06:11:32;;;;;;;25.07;17.33;;;9.80;99.90;;;;;;5029700;28;20598;-72
2024/03/30 06:13:57;;;;;;;30.87;18.93;;;9.80;99.90;;;;;;5030429;28;20249;-72
2024/03/30 06:16:23;;;;;;;24.70;18.47;;;9.90;99.90;;;;;;5037130;28;20270;-72
2024/03/30 06:18:48;;;;;;;29.90;18.63;;;9.90;99.90;;;;;;5037453;28;20189;-73
2024/03/30 06:21:15;;;;;;;26.60;19.57;;;9.90;99.90;;;;;;5031082;28;20531;-73
2024/03/30 06:23:41;;;;;;;25.50;18.73;;;10.00;99.90;;;;;;5022037;28;20231;-73
2024/03/30 06:26:06;;;;;;;27.47;19.53;;;10.00;99.90;;;;;;5026134;28;20179;-74
2024/03/30 06:28:32;;;;;;;27.57;19.17;;;10.10;99.90;;;;;;5037393;28;20577;-74
2024/03/30 06:31:01;;;;;;;24.33;18.53;;;10.10;99.90;;;;;;5037351;28;20648;-74
2024/03/30 06:33:27;;;;;;;28.73;19.13;;;10.10;99.90;;;;;;5037169;28;20191;-73
2024/03/30 06:35:53;;;;;;;32.43;20.03;;;10.10;99.90;;;;;;5027001;28;20665;-73
2024/03/30 06:38:19;;;;;;;29.47;19.70;;;10.00;99.90;;;;;;5031568;28;20179;-72
2024/03/30 06:43:41;;;;;;;28.70;19.67;;;10.00;99.90;;;;;;5035633;28;20261;-73
2024/03/30 06:46:07;;;;;;;29.53;20.63;;;10.10;99.90;;;;;;5037304;28;20191;-73
2024/03/30 06:48:33;;;;;;;31.30;20.07;;;10.10;99.90;;;;;;5032738;28;20299;-74
2024/03/30 06:50:58;;;;;;;30.17;20.33;;;10.20;99.90;;;;;;5024642;28;20577;-73
2024/03/30 06:53:24;;;;;;;35.73;19.70;;;10.20;99.90;;;;;;5029674;28;20274;-73
2024/03/30 06:55:50;;;;;;;30.67;19.83;;;10.30;99.90;;;;;;5032146;28;20176;-72
2024/03/30 06:58:16;;;;;;;31.40;18.67;;;10.30;99.90;;;;;;5036779;28;20203;-73
2024/03/30 07:00:42;;;;;;;29.20;18.87;;;10.40;99.90;;;;;;5017938;28;20225;-73
2024/03/30 07:03:08;;;;;;;30.23;18.70;;;10.50;99.90;;;;;;5032302;28;20210;-74
2024/03/30 07:05:34;;;;;;;28.97;18.67;;;10.60;99.90;;;;;;5019642;28;20179;-73
2024/03/30 07:08:00;;;;;;;27.87;18.53;;;10.60;99.90;;;;;;5037263;28;20210;-73
2024/03/30 07:10:26;;;;;;;25.40;17.70;;;10.60;99.90;;;;;;5037335;28;20210;-73
2024/03/30 07:12:54;;;;;;;29.03;17.53;;;10.70;99.90;;;;;;5037099;28;20191;-73
2024/03/30 07:15:21;;;;;;;23.43;17.13;;;10.70;99.90;;;;;;5037222;28;20175;-73
2024/03/30 07:17:46;;;;;;;28.70;17.70;;;10.70;99.90;;;;;;5013557;28;20184;-73
2024/03/30 07:20:12;;;;;;;22.47;16.80;;;10.70;99.90;;;;;;5014568;28;20554;-73
2024/03/30 07:22:38;;;;;;;20.70;16.27;;;10.70;99.90;;;;;;5032615;28;20182;-73
2024/03/30 07:25:04;;;;;;;19.23;15.17;;;10.70;99.90;;;;;;5027548;28;20271;-73
2024/03/30 07:27:30;;;;;;;20.40;14.47;;;10.70;99.90;;;;;;5025629;28;20184;-73
2024/03/30 07:29:56;;;;;;;23.63;15.77;;;10.80;99.90;;;;;;5034395;28;20211;-73
2024/03/30 07:32:21;;;;;;;25.43;16.93;;;10.90;99.90;;;;;;5033865;28;20207;-73
2024/03/30 07:34:49;;;;;;;23.23;15.53;;;10.90;99.90;;;;;;5034006;28;20199;-73
2024/03/30 07:37:14;;;;;;;20.97;15.53;;;11.00;99.90;;;;;;5019140;28;20215;-73
2024/03/30 07:39:41;;;;;;;20.30;14.63;;;11.10;99.90;;;;;;5031164;28;20211;-73
2024/03/30 07:42:07;;;;;;;21.93;14.17;;;11.10;99.90;;;;;;5030603;28;20275;-73
2024/03/30 07:44:34;;;;;;;19.17;13.27;;;11.20;99.90;;;;;;5033602;28;20196;-73
2024/03/30 07:47:00;;;;;;;18.57;13.83;;;11.30;99.90;;;;;;5020882;28;20719;-73
2024/03/30 07:49:25;;;;;;;16.20;12.20;;;11.40;99.90;;;;;;5013641;28;20296;-74
2024/03/30 07:51:51;;;;;;;13.67;11.47;;;11.50;99.90;;;;;;5025715;28;20175;-72
2024/03/30 07:54:17;;;;;;;14.33;10.87;;;11.50;99.90;;;;;;5026874;28;20188;-72
2024/03/30 07:56:52;;;;;;;14.80;11.07;;;11.60;99.90;;;;;;5013848;28;20183;-72
2024/03/30 07:59:18;;;;;;;13.83;9.60;;;11.70;99.90;;;;;;5023678;28;20309;-72
2024/03/30 08:01:43;;;;;;;14.50;10.00;;;11.90;99.90;;;;;;5020213;28;20267;-72
2024/03/30 08:04:09;;;;;;;14.77;9.87;;;12.10;99.90;;;;;;5026328;28;20197;-72
2024/03/30 08:06:35;;;;;;;10.77;8.90;;;12.20;99.90;;;;;;5013042;28;20247;-73
2024/03/30 08:09:00;;;;;;;8.97;8.10;;;12.40;99.90;;;;;;5013303;28;20549;-73
2024/03/30 08:11:26;;;;;;;13.60;7.77;;;12.60;99.90;;;;;;5013463;28;20176;-73
2024/03/30 08:13:51;;;;;;;9.87;7.83;;;12.70;99.90;;;;;;5013530;28;20257;-73
2024/03/30 08:16:17;;;;;;;11.87;7.20;;;12.90;99.90;;;;;;5013021;28;20270;-73
2024/03/30 08:18:43;;;;;;;7.73;6.93;;;13.10;99.90;;;;;;5013080;28;20188;-73
2024/03/30 08:21:09;;;;;;;9.60;6.83;;;13.20;99.90;;;;;;5013505;28;20207;-73
2024/03/30 08:23:34;;;;;;;8.73;6.40;;;13.40;99.90;;;;;;5013400;28;20234;-73
2024/03/30 08:26:00;;;;;;;8.10;6.20;;;13.60;99.90;;;;;;5013577;28;20165;-73
2024/03/30 08:28:25;;;;;;;7.57;6.00;;;13.80;99.90;;;;;;5013134;28;20196;-72
2024/03/30 08:30:51;;;;;;;6.47;5.87;;;14.00;99.90;;;;;;5013530;28;20172;-72
2024/03/30 08:33:16;;;;;;;9.97;5.87;;;14.20;99.90;;;;;;5013278;28;20733;-73
2024/03/30 08:35:55;;;;;;;5.60;5.10;;;14.30;99.90;;;;;;5014054;28;20255;-73
2024/03/30 08:38:21;;;;;;;6.43;4.80;;;14.50;99.90;;;;;;5024277;28;20176;-72
2024/03/30 08:40:48;;;;;;;6.50;4.90;;;14.50;99.90;;;;;;5013139;28;20198;-72
2024/03/30 08:43:17;;;;;;;10.07;4.30;;;14.60;99.90;;;;;;5023320;28;20195;-72
2024/03/30 08:45:43;;;;;;;7.10;4.10;;;14.70;99.90;;;;;;5012845;28;20271;-72
2024/03/30 08:48:13;;;;;;;8.03;4.73;;;14.80;99.90;;;;;;5012796;28;20260;-72
2024/03/30 08:50:40;;;;;;;8.77;4.23;;;14.80;99.90;;;;;;5013240;28;20175;-72
2024/03/30 08:53:07;;;;;;;7.63;4.33;;;14.80;99.90;;;;;;5012898;28;20192;-73
2024/03/30 08:55:34;;;;;;;7.93;4.50;;;14.90;99.90;;;;;;5012830;28;20172;-72
2024/03/30 08:58:00;;;;;;;10.30;4.07;;;15.00;99.90;;;;;;5012496;28;20169;-72
2024/03/30 09:00:25;;;;;;;6.73;4.23;;;15.10;99.90;;;;;;5012905;28;20168;-72
2024/03/30 09:02:52;;;;;;;13.00;4.53;;;15.10;99.90;;;;;;5012231;28;20318;-72
2024/03/30 09:05:18;;;;;;;7.40;4.20;;;15.10;99.90;;;;;;5012497;28;20219;-74
2024/03/30 09:07:44;;;;;;;9.27;4.23;;;15.10;99.90;;;;;;5013188;28;20176;-73
2024/03/30 09:10:09;;;;;;;8.80;3.90;;;15.20;99.90;;;;;;5012704;28;20278;-72
2024/03/30 09:12:35;;;;;;;8.10;3.93;;;15.40;99.90;;;;;;5019316;28;20543;-72
2024/03/30 09:15:00;;;;;;;9.67;3.57;;;15.70;99.90;;;;;;5031986;28;20671;-74
2024/03/30 09:17:26;;;;;;;11.93;4.33;;;15.80;99.90;;;;;;5031684;28;20194;-73
2024/03/30 09:19:52;;;;;;;11.27;4.00;;;15.90;99.90;;;;;;5022905;28;20210;-74
2024/03/30 09:22:17;;;;;;;5.83;3.80;;;15.90;99.90;;;;;;5032194;28;20194;-72
2024/03/30 09:24:43;;;;;;;14.90;4.20;;;16.00;99.90;;;;;;5031813;28;20203;-73
2024/03/30 09:27:08;;;;;;;7.03;4.00;;;16.00;99.90;;;;;;5031429;28;20183;-75
2024/03/30 09:29:34;;;;;;;5.63;3.50;;;15.90;99.90;;;;;;5031893;28;20238;-75
2024/03/30 09:32:00;;;;;;;10.20;4.20;;;15.90;99.90;;;;;;5032017;28;20189;-73
2024/03/30 09:34:25;;;;;;;10.07;3.73;;;15.80;99.90;;;;;;5029298;28;20203;-73
2024/03/30 09:36:51;;;;;;;7.00;4.53;;;15.80;99.90;;;;;;5031572;28;20250;-72
2024/03/30 09:39:16;;;;;;;15.63;4.37;;;15.90;99.90;;;;;;5031537;28;20171;-72
2024/03/30 09:41:50;;;;;;;8.50;3.60;;;16.00;99.90;;;;;;5031791;28;20676;-73
2024/03/30 09:44:16;;;;;;;8.90;3.60;;;16.10;99.90;;;;;;5031930;28;20672;-72
2024/03/30 09:46:46;;;;;;;13.53;4.17;;;16.30;99.90;;;;;;5031527;28;20171;-73
2024/03/30 09:49:14;;;;;;;9.87;4.00;;;16.50;99.90;;;;;;5018773;28;20207;-73
2024/03/30 09:51:42;;;;;;;6.93;3.53;;;16.70;99.90;;;;;;5012270;28;20251;-74
2024/03/30 09:54:08;;;;;;;15.50;4.33;;;16.90;99.90;;;;;;5011907;28;20197;-73
2024/03/30 09:56:34;;;;;;;18.10;4.23;;;17.00;99.90;;;;;;5011318;28;20168;-72
2024/03/30 09:59:03;;;;;;;11.13;3.63;;;17.20;99.90;;;;;;5011768;28;20731;-73
2024/03/30 10:01:28;;;;;;;10.37;4.00;;;17.40;99.90;;;;;;5014424;28;20168;-73
2024/03/30 10:03:54;;;;;;;18.47;4.10;;;17.50;99.90;;;;;;5030938;28;20199;-74
2024/03/30 10:06:28;;;;;;;12.07;4.23;;;17.70;99.90;;;;;;5031185;28;20225;-73
2024/03/30 10:09:01;;;;;;;13.90;3.97;;;17.90;99.90;;;;;;5031249;28;20201;-72
2024/03/30 10:11:30;;;;;;;17.50;4.17;;;18.20;99.90;;;;;;5031183;28;20176;-72
2024/03/30 10:14:03;;;;;;;16.63;4.20;;;18.40;99.90;;;;;;5031344;28;20194;-72
2024/03/30 10:16:29;;;;;;;15.67;4.03;;;18.60;99.90;;;;;;5031210;28;20187;-74
2024/03/30 10:18:56;;;;;;;16.67;4.60;;;18.60;99.90;;;;;;5031506;28;20664;-72
2024/03/30 10:21:22;;;;;;;17.23;4.57;;;18.50;99.90;;;;;;5031443;28;20329;-74
2024/03/30 10:23:48;;;;;;;15.30;5.03;;;18.40;99.90;;;;;;5031399;28;20265;-74
2024/03/30 10:26:17;;;;;;;20.33;5.00;;;18.20;99.90;;;;;;5030952;28;20180;-73
2024/03/30 10:28:43;;;;;;;16.63;5.10;;;18.00;99.90;;;;;;5029871;28;20207;-73
2024/03/30 10:31:09;;;;;;;16.17;4.67;;;17.80;99.90;;;;;;5014296;28;20271;-74
2024/03/30 10:33:35;;;;;;;20.00;5.40;;;17.60;99.90;;;;;;5011441;28;20263;-73
2024/03/30 10:36:02;;;;;;;32.03;4.47;;;17.50;99.90;;;;;;5011658;28;20705;-74
2024/03/30 10:38:28;;;;;;;27.53;5.33;;;17.50;99.90;;;;;;5011442;28;20169;-73
2024/03/30 10:40:57;;;;;;;15.73;4.63;;;17.50;99.90;;;;;;5011432;28;20174;-75
2024/03/30 10:43:23;;;;;;;21.27;5.07;;;17.40;99.90;;;;;;5011173;28;20196;-74
2024/03/30 10:45:49;;;;;;;24.20;5.33;;;17.40;99.90;;;;;;5012472;28;20183;-73
2024/03/30 10:48:15;;;;;;;21.53;5.40;;;17.40;99.90;;;;;;5011156;28;20262;-73
2024/03/30 10:50:41;;;;;;;36.20;5.50;;;17.40;99.90;;;;;;5011962;28;20168;-73
2024/03/30 10:53:07;;;;;;;29.70;5.70;;;17.40;99.90;;;;;;5014575;28;20273;-73
2024/03/30 10:55:37;;;;;;;20.70;5.00;;;17.40;99.90;;;;;;5014935;28;20252;-74
2024/03/30 10:58:04;;;;;;;25.30;4.47;;;17.40;99.90;;;;;;5022139;28;20172;-73
2024/03/30 11:00:30;;;;;;;26.13;4.77;;;17.40;99.90;;;;;;5034861;28;20175;-73
2024/03/30 11:03:00;;;;;;;26.53;5.83;;;17.30;99.90;;;;;;5034588;28;20537;-71
2024/03/30 11:05:27;;;;;;;26.50;5.07;;;17.30;99.90;;;;;;5034430;28;20174;-72
2024/03/30 11:07:54;;;;;;;30.80;6.10;;;17.30;99.90;;;;;;5034340;28;20175;-73
2024/03/30 11:10:20;;;;;;;22.30;5.60;;;17.30;99.90;;;;;;5033088;28;20203;-72
2024/03/30 11:12:45;;;;;;;22.53;5.73;;;17.30;99.90;;;;;;5033790;28;20195;-72
2024/03/30 11:15:11;;;;;;;33.83;6.63;;;17.30;99.90;;;;;;5034503;28;20180;-72
2024/03/30 11:18:00;;;;;;;36.73;6.73;;;17.30;99.90;;;;;;5034389;28;20191;-73
2024/03/30 11:21:12;;;;;;;26.97;5.43;;;17.40;99.90;;;;;;5034621;28;20195;-72
2024/03/30 11:23:41;;;;;;;36.43;6.40;;;17.40;99.90;;;;;;5023846;28;20223;-73
2024/03/30 11:26:09;;;;;;;33.77;6.97;;;17.40;99.90;;;;;;5025979;28;20513;-72
2024/03/30 11:28:41;;;;;;;31.87;6.10;;;17.50;99.90;;;;;;5014705;28;20211;-73
2024/03/30 11:31:21;;;;;;;25.80;6.43;;;17.50;99.90;;;;;;5030530;28;20664;-72
2024/03/30 11:33:59;;;;;;;30.93;6.40;;;17.50;99.90;;;;;;5033904;28;20322;-73
2024/03/30 11:36:46;;;;;;;42.03;6.97;;;17.50;99.90;;;;;;5034068;28;20182;-72
2024/03/30 11:39:21;;;;;;;36.97;6.40;;;17.40;99.90;;;;;;5034155;28;20197;-72
2024/03/30 11:41:51;;;;;;;31.07;6.13;;;17.50;99.90;;;;;;5034010;28;20711;-72
2024/03/30 11:44:21;;;;;;;36.80;6.20;;;17.40;99.90;;;;;;5032235;28;20203;-71
2024/03/30 11:46:49;;;;;;;31.27;6.63;;;17.40;99.90;;;;;;5033938;28;20187;-71
2024/03/30 11:49:18;;;;;;;30.93;6.47;;;17.40;99.90;;;;;;5034703;28;20212;-71
2024/03/30 11:51:43;;;;;;;28.37;6.77;;;17.40;99.90;;;;;;5034598;28;20176;-73
2024/03/30 11:54:20;;;;;;;26.10;7.10;;;17.40;99.90;;;;;;5032749;28;20210;-73
2024/03/30 11:57:01;;;;;;;30.67;5.53;;;17.40;99.90;;;;;;5032079;28;20175;-72
2024/03/30 11:59:27;;;;;;;33.67;5.97;;;17.30;99.90;;;;;;5034281;28;20202;-75
2024/03/30 12:01:55;;;;;;;28.23;5.00;;;17.30;99.90;;;;;;5034162;28;20262;-73
2024/03/30 12:04:21;;;;;;;27.10;5.03;;;17.20;99.90;;;;;;5032276;28;20343;-74
2024/03/30 12:06:46;;;;;;;26.80;5.43;;;17.20;99.90;;;;;;5034800;28;20226;-73
2024/03/30 12:09:13;;;;;;;23.30;5.87;;;17.20;99.90;;;;;;5033777;28;20199;-72
2024/03/30 12:11:39;;;;;;;25.47;5.53;;;17.20;99.90;;;;;;5034518;28;20597;-73
2024/03/30 12:14:07;;;;;;;38.03;6.30;;;17.30;99.90;;;;;;5034120;28;20199;-74
2024/03/30 12:16:38;;;;;;;22.50;5.53;;;17.30;99.90;;;;;;5034123;28;20579;-73
2024/03/30 12:19:03;;;;;;;31.67;4.80;;;17.40;99.90;;;;;;5033166;28;20253;-74
2024/03/30 12:21:31;;;;;;;22.03;4.77;;;17.30;99.90;;;;;;5034480;28;20179;-71
2024/03/30 12:23:57;;;;;;;29.93;5.63;;;17.30;99.90;;;;;;5033835;28;20187;-73
2024/03/30 12:26:24;;;;;;;23.13;5.60;;;17.30;99.90;;;;;;5016394;28;20188;-74
2024/03/30 12:28:49;;;;;;;27.30;5.67;;;17.30;99.90;;;;;;5012631;28;20709;-72
2024/03/30 12:31:15;;;;;;;33.87;5.27;;;17.40;99.90;;;;;;5014465;28;20172;-73
2024/03/30 12:33:41;;;;;;;26.10;5.23;;;17.40;99.90;;;;;;5013789;28;20673;-72
2024/03/30 12:36:07;;;;;;;19.73;4.80;;;17.50;99.90;;;;;;5013682;28;20180;-73
2024/03/30 12:38:35;;;;;;;30.73;5.37;;;17.60;99.90;;;;;;5014012;28;20184;-74
2024/03/30 12:41:01;;;;;;;15.53;4.80;;;17.70;99.90;;;;;;5014424;28;20192;-74